Waldenburg, Arkansas
Current Conditions -  °F | °C
As of 11:56 AM on Monday 24 Nov 2014 (Local Time) from KM19 Reporting Station
Clear Clear  
Wind Chill: 56°   Ceiling: Unl
Heat Index: 56°   Visibility: 10mi
Dew Point: 30°   Wind: 13mph
Humidity: 37%   Direction: 290°WNW
Pressure: 29.87"   Gusts: 21mph
Location:  35.57°N, 90.93°W
Report Text: KM19 241756Z AUTO 29011G18KT 10SM CLR 13/M01 A2987 RMK AO2 50008 T01331011 10133 20061 SLP114
Loading
Personal Weather Stations






























Interactive Weather Map New forecast layout! Learn more

10-Day Weather Forecast

Advertisements
Track Severe Weather on mobile